Warning: Javascript must be enabled to use all the features on this page!


Page Loading - Please Wait...

Click to hideNews Bulletins

Peak Streamflow for the Nation

USGS 02130800 BACKSWAMP NEAR DARLINGTON, S.C.

Darlington County, South Carolina
Hydrologic Unit Code 03040201
Latitude  34°18'11", Longitude  79°46'07" NAD27
Drainage area 6.22  square miles
Output formats
Table
Graph
Tab-separated file
peakfq (watstore) format
Reselect output format
Water
Year
Date Gage
Height
(feet)
Stream-
flow
(cfs)
1976 1976-06-23 5.30 87.0
1977 1977-08-02 5.71 103
1978 1978-01-26 5.52 96.0
1979 1979-02-24 6.48 139
1980 1979-11-26 8.04 228
1981 1981-08-11 4.68 66.0
1982 1982-06-05 5.35 89.0
1983 1983-04-10 8.59 267
1984 1984-04-05 5.85 82.0
1985 1985-08-18 5.45 62.0
1986 1986-03-20 8.82 281
1987 1987-02-28 6.96 146
1988 1988-05-06 5.04 41.0
1989 1989-07-26 4.78 23.5
1990 1990-02-28 5.21 51.0
1991 1990-10-11 5.23 52.0
1992 1992-08-23 6.81 136
1993 1993-01-15 7.98 220
1994 1994-09-18 6.45 117
1995 1994-12-24 12.21 800
1996 1996-03-09 6.09 106
1997 1997-01-09 9.92  
1998 1997-11-22 9.67  
1999 1999-05-03 9.29 312
2000 1999-10-13 6.99 150
2001 2000-11-27 6.22 103
2003 2003-07-02 5.83  
2004 2004-09-08 9.04 299
2005 2005-03-17 6.09 95.3
2008 2008-04-06 5.65 72.07
2010 2010-06-02 6.16 99.4
2011 2011-04-09 5.86 82.7
2013 2013-07-27 7.001  
2014 2014-04-15 6.62  
2015 2015-07-13 5.62 71.0
2016 2015-10-04 7.07 153
2017 2016-10-08 11.50 530
2018 2018-09-16 7.42 175
2019 2018-11-15 6.81 136
2020 2020-05-30 7.56 184
2021 2021-02-20 8.89 287
2022 2022-01-05 8.57 261
2023 2023-01-26 8.78 278
?
  Peak Gage-Height Qualification Codes.
?
  Peak Streamflow Qualification Codes.